createdAt,value
2018-11-26T00:01:26.916Z,84.33
2018-11-26T00:03:55.453Z,81.57
2018-11-26T00:06:24.078Z,85.77
2018-11-26T00:08:52.631Z,86.43
2018-11-26T00:11:31.093Z,88.07
2018-11-26T00:13:59.672Z,74.13
2018-11-26T00:16:28.360Z,87.23
2018-11-26T00:18:56.843Z,81.77
2018-11-26T00:21:25.422Z,79.40
2018-11-26T00:23:54.020Z,84.73
2018-11-26T00:26:22.744Z,83.03
2018-11-26T00:28:51.392Z,86.07
2018-11-26T00:31:20.739Z,83.53
2018-11-26T00:33:49.354Z,85.13
2018-11-26T00:36:18.018Z,84.63
2018-11-26T00:38:46.599Z,83.20
2018-11-26T00:41:15.801Z,84.57
2018-11-26T00:43:44.357Z,87.67
2018-11-26T00:46:13.044Z,89.90
2018-11-26T00:48:41.627Z,80.83
2018-11-26T00:51:10.334Z,77.67
2018-11-26T00:53:38.934Z,81.63
2018-11-26T00:56:07.564Z,77.53
2018-11-26T00:58:36.165Z,82.20
2018-11-26T01:01:04.762Z,83.20
2018-11-26T01:03:33.366Z,83.50
2018-11-26T01:06:02.027Z,81.07
2018-11-26T01:08:30.718Z,77.67
2018-11-26T01:10:59.303Z,77.77
2018-11-26T01:13:28.004Z,80.33
2018-11-26T01:15:57.491Z,74.53
2018-11-26T01:18:26.391Z,70.10
2018-11-26T01:20:55.120Z,75.30
2018-11-26T01:23:23.794Z,73.80
2018-11-26T01:25:52.445Z,75.23
2018-11-26T01:28:21.085Z,80.00
2018-11-26T01:30:56.458Z,83.80
2018-11-26T01:33:25.044Z,76.67
2018-11-26T01:35:53.649Z,71.53
2018-11-26T01:38:22.240Z,75.47
2018-11-26T01:40:52.350Z,71.80
2018-11-26T01:43:21.537Z,67.20
2018-11-26T01:45:50.090Z,69.07
2018-11-26T01:48:18.679Z,66.93
2018-11-26T01:50:47.334Z,74.50
2018-11-26T01:53:15.966Z,75.87
2018-11-26T01:55:44.645Z,73.60
2018-11-26T01:58:13.232Z,69.43
2018-11-26T02:00:41.800Z,79.47
2018-11-26T02:03:10.313Z,67.03
2018-11-26T02:05:38.911Z,66.03
2018-11-26T02:08:07.664Z,71.07
2018-11-26T02:10:36.240Z,67.60
2018-11-26T02:13:04.901Z,76.93
2018-11-26T02:15:41.982Z,73.37
2018-11-26T02:18:11.024Z,64.93
2018-11-26T02:20:39.635Z,76.23
2018-11-26T02:23:08.490Z,73.27
2018-11-26T02:25:37.193Z,64.60
2018-11-26T02:28:06.175Z,69.50
2018-11-26T02:30:34.855Z,67.07
2018-11-26T02:33:03.428Z,65.00
2018-11-26T02:35:32.106Z,66.87
2018-11-26T02:38:00.689Z,72.23
2018-11-26T02:40:30.317Z,69.37
2018-11-26T02:42:59.055Z,65.50
2018-11-26T02:45:28.740Z,69.53
2018-11-26T02:47:57.529Z,72.10
2018-11-26T02:50:26.099Z,69.47
2018-11-26T02:52:54.669Z,78.67
2018-11-26T02:55:23.353Z,70.57
2018-11-26T02:57:52.108Z,69.43
2018-11-26T03:00:20.706Z,72.20
2018-11-26T03:02:49.741Z,62.70
2018-11-26T03:05:27.924Z,66.47
2018-11-26T03:07:56.525Z,65.53
2018-11-26T03:10:25.127Z,69.30
2018-11-26T03:12:53.666Z,67.47
2018-11-26T03:15:22.348Z,71.30
2018-11-26T03:17:51.077Z,71.70
2018-11-26T03:20:19.607Z,68.10
2018-11-26T03:22:48.862Z,69.57
2018-11-26T03:25:17.489Z,69.60
2018-11-26T03:27:45.997Z,75.93
2018-11-26T03:30:22.078Z,68.27
2018-11-26T03:32:50.660Z,68.37
2018-11-26T03:35:19.419Z,70.30
2018-11-26T03:37:47.940Z,66.43
2018-11-26T03:40:16.437Z,71.63
2018-11-26T03:42:45.053Z,71.33
2018-11-26T03:45:15.627Z,69.33
2018-11-26T03:47:44.193Z,75.50
2018-11-26T03:50:13.498Z,77.00
2018-11-26T03:52:43.290Z,68.43
2018-11-26T03:55:12.268Z,68.97
2018-11-26T03:57:40.838Z,73.30
2018-11-26T04:00:13.334Z,73.53
2018-11-26T04:02:41.948Z,74.13
2018-11-26T04:05:11.035Z,66.47
2018-11-26T04:07:39.688Z,73.47
2018-11-26T04:10:10.219Z,69.67
2018-11-26T04:12:38.771Z,75.10
2018-11-26T04:15:09.489Z,73.40
2018-11-26T04:17:38.438Z,74.00
2018-11-26T04:20:08.891Z,76.40
2018-11-26T04:22:37.397Z,72.37
2018-11-26T04:25:07.069Z,69.97
2018-11-26T04:27:35.664Z,74.00
2018-11-26T04:30:04.378Z,83.73
2018-11-26T04:32:33.310Z,76.20
2018-11-26T04:35:01.865Z,71.87
2018-11-26T04:37:30.397Z,72.03
2018-11-26T04:39:58.876Z,75.17
2018-11-26T04:42:27.556Z,76.33
2018-11-26T04:44:57.182Z,85.57
2018-11-26T04:47:25.704Z,73.53
2018-11-26T04:49:54.376Z,77.80
2018-11-26T04:52:22.919Z,77.57
2018-11-26T04:54:51.687Z,75.10
2018-11-26T04:57:20.363Z,75.83
2018-11-26T04:59:48.908Z,78.40
2018-11-26T05:02:17.454Z,70.60
2018-11-26T05:04:46.177Z,66.33
2018-11-26T05:07:14.733Z,78.00
2018-11-26T05:09:43.279Z,75.77
2018-11-26T05:12:11.889Z,77.33
2018-11-26T05:14:40.727Z,83.57
2018-11-26T05:17:09.241Z,76.43
2018-11-26T05:19:37.837Z,69.80
2018-11-26T05:22:06.467Z,77.53
2018-11-26T05:24:35.047Z,81.40
2018-11-26T05:27:03.718Z,74.87
2018-11-26T05:29:32.315Z,75.00
2018-11-26T05:32:00.861Z,77.50
2018-11-26T05:34:29.673Z,75.07
2018-11-26T05:36:58.151Z,77.57
2018-11-26T05:39:27.623Z,77.90
2018-11-26T05:41:56.186Z,89.23
2018-11-26T05:44:24.897Z,70.27
2018-11-26T05:46:53.528Z,74.90
2018-11-26T05:49:22.913Z,78.20
2018-11-26T05:51:50.903Z,74.80
2018-11-26T05:54:19.703Z,71.47
2018-11-26T05:56:48.434Z,74.97
2018-11-26T05:59:16.974Z,73.13
2018-11-26T06:01:45.632Z,72.30
2018-11-26T06:04:14.216Z,77.80
2018-11-26T06:06:42.800Z,73.50
2018-11-26T06:09:11.737Z,71.27
2018-11-26T06:11:40.756Z,72.27
2018-11-26T06:14:09.288Z,72.07
2018-11-26T06:16:37.892Z,70.40
2018-11-26T06:19:06.595Z,68.93
2018-11-26T06:21:35.305Z,82.57
2018-11-26T06:24:03.833Z,79.10
2018-11-26T06:26:32.403Z,77.47
2018-11-26T06:29:01.055Z,65.53
2018-11-26T06:31:30.426Z,66.30
2018-11-26T06:33:59.063Z,73.43
2018-11-26T06:36:27.679Z,74.23
2018-11-26T06:38:56.291Z,71.37
2018-11-26T06:41:24.914Z,74.90
2018-11-26T06:43:53.441Z,70.57
2018-11-26T06:46:22.173Z,66.63
2018-11-26T06:48:50.825Z,60.80
2018-11-26T06:51:19.464Z,69.93
2018-11-26T06:53:48.001Z,73.90
2018-11-26T06:56:16.694Z,67.10
2018-11-26T06:58:45.491Z,69.80
2018-11-26T07:01:14.374Z,67.00
2018-11-26T07:03:43.076Z,70.77
2018-11-26T07:06:11.667Z,68.27
2018-11-26T07:08:40.483Z,62.60
2018-11-26T07:11:09.175Z,70.03
2018-11-26T07:13:37.826Z,68.00
2018-11-26T07:16:06.518Z,70.60
2018-11-26T07:18:35.340Z,66.93
2018-11-26T07:21:04.015Z,69.90
2018-11-26T07:23:32.768Z,60.90
2018-11-26T07:26:01.458Z,66.10
2018-11-26T07:28:30.107Z,68.60
2018-11-26T07:30:58.670Z,69.50
2018-11-26T07:33:27.621Z,89.33
2018-11-26T07:35:56.476Z,62.47
2018-11-26T07:38:25.172Z,63.20
2018-11-26T07:40:53.900Z,65.67
2018-11-26T07:43:22.714Z,65.77
2018-11-26T07:45:51.533Z,60.13
2018-11-26T07:48:20.133Z,65.83
2018-11-26T07:50:48.815Z,63.57
2018-11-26T07:53:17.472Z,57.70
2018-11-26T07:55:46.130Z,61.40
2018-11-26T07:58:14.718Z,60.83
2018-11-26T08:00:43.455Z,70.50
2018-11-26T08:03:12.252Z,68.60
2018-11-26T08:05:41.494Z,63.37
2018-11-26T08:08:10.154Z,67.50
2018-11-26T08:10:38.887Z,64.83
2018-11-26T08:13:07.645Z,65.40
2018-11-26T08:15:36.369Z,65.00
2018-11-26T08:18:04.957Z,59.20
2018-11-26T08:20:33.758Z,63.67
2018-11-26T08:23:02.536Z,60.83
2018-11-26T08:25:31.268Z,57.13
2018-11-26T08:28:00.090Z,62.27
2018-11-26T08:30:28.991Z,60.50
2018-11-26T08:32:59.903Z,64.00
2018-11-26T08:35:29.642Z,60.37
2018-11-26T08:38:03.688Z,59.37
2018-11-26T08:40:37.759Z,67.40
2018-11-26T08:43:07.319Z,64.57
2018-11-26T08:45:38.696Z,69.23
2018-11-26T08:48:12.611Z,65.70
2018-11-26T08:50:41.192Z,64.70
2018-11-26T08:53:09.803Z,67.13
2018-11-26T08:55:38.483Z,65.67
2018-11-26T08:58:07.155Z,68.07
2018-11-26T09:00:35.736Z,66.93
2018-11-26T09:03:10.355Z,66.13
2018-11-26T09:05:45.571Z,77.30
2018-11-26T09:08:14.872Z,73.83
2018-11-26T09:10:43.585Z,67.73
2018-11-26T09:13:12.372Z,66.00
2018-11-26T09:15:41.166Z,75.67
2018-11-26T09:18:09.880Z,69.40
2018-11-26T09:20:38.534Z,63.13
2018-11-26T09:23:07.181Z,70.13
2018-11-26T09:25:35.873Z,77.80
2018-11-26T09:28:04.513Z,68.73
2018-11-26T09:30:33.141Z,73.33
2018-11-26T09:33:01.759Z,73.93
2018-11-26T09:35:30.516Z,69.63
2018-11-26T09:37:59.226Z,66.57
2018-11-26T09:40:27.884Z,72.23
2018-11-26T09:42:56.615Z,73.97
2018-11-26T09:45:25.390Z,71.27
2018-11-26T09:47:53.969Z,68.27
2018-11-26T09:50:23.328Z,72.20
2018-11-26T09:52:52.667Z,74.13
2018-11-26T09:55:21.367Z,80.23
2018-11-26T09:57:49.963Z,72.73
2018-11-26T10:00:19.729Z,64.13
2018-11-26T10:02:49.562Z,74.30
2018-11-26T10:05:25.683Z,77.90
2018-11-26T10:07:54.322Z,74.33
2018-11-26T10:10:22.964Z,71.77
2018-11-26T10:12:51.642Z,63.57
2018-11-26T10:15:23.325Z,71.17
2018-11-26T10:17:52.025Z,73.30
2018-11-26T10:20:21.688Z,72.43
2018-11-26T10:22:51.697Z,68.80
2018-11-26T10:25:21.268Z,67.07
2018-11-26T10:27:50.009Z,71.43
2018-11-26T10:30:21.049Z,78.00
2018-11-26T10:32:50.777Z,71.80
2018-11-26T10:35:20.940Z,81.63
2018-11-26T10:37:49.642Z,66.67
2018-11-26T10:40:20.604Z,81.67
2018-11-26T10:42:49.184Z,66.80
2018-11-26T10:45:18.976Z,67.70
2018-11-26T10:47:47.620Z,69.10
2018-11-26T10:50:19.937Z,70.77
2018-11-26T10:52:51.547Z,69.17
2018-11-26T10:55:22.686Z,67.10
2018-11-26T10:57:51.339Z,69.43
2018-11-26T11:00:25.149Z,65.93
2018-11-26T11:02:54.054Z,68.10
2018-11-26T11:05:22.786Z,65.93
2018-11-26T11:07:51.330Z,73.37
2018-11-26T11:10:22.881Z,60.30
2018-11-26T11:12:51.661Z,57.80
2018-11-26T11:15:20.492Z,58.30
2018-11-26T11:17:49.272Z,65.17
2018-11-26T11:20:20.181Z,64.63
2018-11-26T11:22:48.851Z,56.27
2018-11-26T11:25:18.349Z,61.20
2018-11-26T11:27:47.099Z,64.20
2018-11-26T11:30:16.832Z,57.03
2018-11-26T11:32:45.863Z,62.20
2018-11-26T11:35:15.242Z,64.23
2018-11-26T11:37:44.648Z,61.70
2018-11-26T11:40:15.637Z,62.97
2018-11-26T11:42:44.291Z,62.43
2018-11-26T11:45:13.494Z,55.57
2018-11-26T11:47:43.187Z,60.00
2018-11-26T11:50:13.601Z,60.87
2018-11-26T11:52:42.185Z,59.97
2018-11-26T11:55:14.685Z,56.30
2018-11-26T11:57:43.266Z,61.23
2018-11-26T12:00:18.842Z,59.27
2018-11-26T12:02:47.514Z,56.30
2018-11-26T12:05:16.345Z,65.90
2018-11-26T12:07:44.970Z,55.93
2018-11-26T12:10:14.352Z,57.50
2018-11-26T12:12:42.894Z,61.03
2018-11-26T12:15:13.854Z,57.70
2018-11-26T12:17:43.011Z,56.87
2018-11-26T12:20:12.831Z,53.00
2018-11-26T12:22:41.610Z,58.00
2018-11-26T12:25:13.500Z,55.70
2018-11-26T12:27:42.205Z,60.97
2018-11-26T12:30:15.151Z,56.80
2018-11-26T12:32:43.927Z,55.43
2018-11-26T12:35:12.755Z,57.27
2018-11-26T12:37:41.640Z,55.37
2018-11-26T12:40:12.458Z,56.63
2018-11-26T12:42:41.210Z,59.10
2018-11-26T12:45:29.438Z,54.03
2018-11-26T12:47:58.324Z,55.90
2018-11-26T12:50:27.374Z,55.67
2018-11-26T12:52:56.156Z,53.43
2018-11-26T12:55:25.329Z,55.63
2018-11-26T12:57:55.261Z,61.70
2018-11-26T13:00:25.885Z,58.97
2018-11-26T13:02:55.896Z,47.37
2018-11-26T13:05:24.458Z,58.00
2018-11-26T13:07:53.212Z,53.80
2018-11-26T13:10:22.813Z,58.37
2018-11-26T13:12:52.407Z,53.70
2018-11-26T13:15:22.196Z,59.93
2018-11-26T13:17:50.873Z,65.87
2018-11-26T13:20:23.095Z,53.37
2018-11-26T13:22:52.155Z,52.83
2018-11-26T13:25:22.227Z,57.40
2018-11-26T13:27:53.030Z,55.50
2018-11-26T13:30:25.058Z,55.23
2018-11-26T13:32:55.356Z,52.23
2018-11-26T13:35:24.094Z,53.03
2018-11-26T13:37:52.574Z,50.03
2018-11-26T13:40:21.546Z,47.57
2018-11-26T13:42:50.755Z,48.23
2018-11-26T13:45:29.976Z,53.90
2018-11-26T13:47:58.576Z,51.43
2018-11-26T13:50:30.646Z,55.60
2018-11-26T13:52:59.321Z,55.17
2018-11-26T13:55:28.066Z,51.73
2018-11-26T13:57:56.804Z,51.07
2018-11-26T14:00:25.463Z,54.87
2018-11-26T14:02:54.263Z,52.20
2018-11-26T14:05:23.075Z,51.57
2018-11-26T14:07:51.853Z,47.93
2018-11-26T14:10:29.017Z,48.83
2018-11-26T14:13:01.717Z,52.93
2018-11-26T14:15:30.428Z,52.57
2018-11-26T14:17:59.217Z,52.50
2018-11-26T14:20:27.984Z,51.43
2018-11-26T14:22:56.748Z,49.80
2018-11-26T14:25:26.502Z,52.77
2018-11-26T14:27:55.172Z,46.90
2018-11-26T14:30:28.743Z,54.20
2018-11-26T14:32:58.369Z,54.00
2018-11-26T14:35:27.080Z,51.57
2018-11-26T14:38:05.135Z,45.00
2018-11-26T14:40:38.232Z,51.03
2018-11-26T14:43:07.656Z,55.77
2018-11-26T14:45:36.306Z,54.60
2018-11-26T14:48:06.044Z,49.30
2018-11-26T14:50:34.754Z,60.77
2018-11-26T14:53:04.351Z,53.63
2018-11-26T14:55:36.425Z,51.73
2018-11-26T14:58:05.197Z,51.97
2018-11-26T15:00:33.861Z,56.17
2018-11-26T15:03:02.637Z,57.07
2018-11-26T15:05:31.363Z,55.67
2018-11-26T15:07:59.988Z,60.23
2018-11-26T15:10:28.599Z,54.90
2018-11-26T15:12:57.524Z,59.87
2018-11-26T15:15:27.052Z,61.40
2018-11-26T15:17:55.803Z,58.50
2018-11-26T15:20:28.798Z,58.17
2018-11-26T15:22:59.500Z,57.70
2018-11-26T15:25:31.164Z,54.23
2018-11-26T15:28:03.423Z,60.70
2018-11-26T15:30:32.034Z,57.97
2018-11-26T15:33:01.589Z,58.03
2018-11-26T15:35:30.397Z,59.87
2018-11-26T15:37:59.125Z,53.63
2018-11-26T15:40:27.827Z,62.30
2018-11-26T15:42:56.928Z,57.67
2018-11-26T15:45:27.213Z,57.53
2018-11-26T15:47:57.327Z,62.27
2018-11-26T15:50:26.040Z,70.60
2018-11-26T15:52:54.784Z,60.20
2018-11-26T15:55:23.483Z,62.17
2018-11-26T15:57:52.285Z,80.57
2018-11-26T16:00:23.830Z,68.93
2018-11-26T16:02:52.798Z,58.23
2018-11-26T16:05:22.833Z,60.77
2018-11-26T16:07:54.271Z,60.80
2018-11-26T16:10:23.555Z,60.10
2018-11-26T16:12:56.010Z,56.80
2018-11-26T16:15:29.648Z,64.27
2018-11-26T16:17:59.931Z,52.77
2018-11-26T16:20:29.098Z,56.43
2018-11-26T16:22:59.210Z,60.77
2018-11-26T16:25:28.425Z,59.00
2018-11-26T16:28:04.039Z,58.13
2018-11-26T16:30:32.865Z,50.83
2018-11-26T16:33:01.639Z,58.07
2018-11-26T16:35:32.076Z,63.87
2018-11-26T16:38:01.147Z,59.40
2018-11-26T16:40:29.779Z,54.20
2018-11-26T16:42:59.441Z,52.53
2018-11-26T16:45:28.806Z,56.83
2018-11-26T16:47:58.338Z,55.37
2018-11-26T16:50:28.159Z,55.73
2018-11-26T16:52:56.725Z,54.20
2018-11-26T16:55:25.392Z,48.50
2018-11-26T16:57:54.015Z,46.83
2018-11-26T17:00:23.811Z,46.67
2018-11-26T17:02:54.353Z,49.07
2018-11-26T17:05:25.452Z,53.57
2018-11-26T17:07:54.085Z,44.37
2018-11-26T17:10:22.751Z,46.23
2018-11-26T17:12:51.593Z,46.50
2018-11-26T17:15:20.177Z,44.37
2018-11-26T17:17:48.978Z,45.07
2018-11-26T17:20:18.212Z,42.23
2018-11-26T17:22:47.032Z,46.70
2018-11-26T17:25:16.708Z,47.80
2018-11-26T17:27:47.409Z,46.33
2018-11-26T17:30:20.451Z,44.03
2018-11-26T17:33:01.459Z,43.30
2018-11-26T17:35:30.600Z,38.60
2018-11-26T17:37:59.254Z,41.07
2018-11-26T17:40:28.159Z,42.47
2018-11-26T17:42:57.110Z,42.27
2018-11-26T17:45:26.288Z,36.07
2018-11-26T17:47:56.759Z,40.13
2018-11-26T17:50:29.328Z,43.43
2018-11-26T17:52:59.753Z,39.90
2018-11-26T17:55:28.459Z,42.83
2018-11-26T17:57:57.034Z,42.80
2018-11-26T18:00:28.344Z,41.50
2018-11-26T18:02:57.914Z,43.80
2018-11-26T18:05:28.179Z,37.20
2018-11-26T18:08:00.503Z,40.33
2018-11-26T18:10:29.278Z,42.13
2018-11-26T18:12:59.187Z,42.57
2018-11-26T18:15:28.033Z,37.93
2018-11-26T18:17:57.726Z,41.63
2018-11-26T18:20:26.446Z,38.80
2018-11-26T18:22:55.545Z,39.53
2018-11-26T18:25:25.387Z,41.63
2018-11-26T18:28:25.057Z,41.60
2018-11-26T18:30:54.827Z,40.57
2018-11-26T18:33:23.831Z,39.80
2018-11-26T18:35:52.691Z,42.57
2018-11-26T18:38:22.273Z,41.47
2018-11-26T18:40:51.854Z,40.70
2018-11-26T18:43:20.766Z,40.53
2018-11-26T18:45:49.544Z,41.87
2018-11-26T18:48:18.266Z,41.17
2018-11-26T18:50:47.057Z,40.37
2018-11-26T18:53:15.879Z,42.87
2018-11-26T18:55:44.738Z,39.83
2018-11-26T18:58:13.535Z,43.23
2018-11-26T19:00:46.227Z,39.50
2018-11-26T19:03:19.890Z,41.73
2018-11-26T19:05:51.004Z,40.37
2018-11-26T19:08:19.564Z,42.30
2018-11-26T19:10:50.131Z,41.23
2018-11-26T19:13:24.726Z,39.13
2018-11-26T19:15:56.645Z,40.03
2018-11-26T19:18:26.468Z,38.47
2018-11-26T19:20:55.121Z,43.23
2018-11-26T19:23:24.206Z,40.50
2018-11-26T19:25:53.610Z,40.37
2018-11-26T19:28:22.352Z,40.13
2018-11-26T19:30:51.142Z,44.23
2018-11-26T19:33:19.956Z,45.57
2018-11-26T19:35:48.908Z,40.50
2018-11-26T19:38:18.274Z,39.43
2018-11-26T19:40:46.932Z,41.03
2018-11-26T19:43:16.526Z,43.37
2018-11-26T19:45:45.367Z,43.63
2018-11-26T19:48:14.043Z,38.53
2018-11-26T19:50:42.702Z,41.80
2018-11-26T19:53:12.775Z,43.70
2018-11-26T19:55:42.674Z,39.90
2018-11-26T19:58:11.479Z,40.63
2018-11-26T20:00:41.507Z,42.97
2018-11-26T20:03:14.921Z,42.50
2018-11-26T20:05:56.497Z,42.57
2018-11-26T20:08:25.260Z,40.33
2018-11-26T20:10:53.993Z,40.57
2018-11-26T20:13:22.647Z,44.57
2018-11-26T20:15:52.870Z,43.97
2018-11-26T20:18:20.569Z,44.53
2018-11-26T20:20:49.291Z,44.37
2018-11-26T20:23:18.117Z,43.47
2018-11-26T20:25:46.931Z,45.77
2018-11-26T20:28:15.898Z,44.50
2018-11-26T20:30:44.786Z,40.50
2018-11-26T20:33:13.374Z,46.30
2018-11-26T20:35:42.085Z,43.97
2018-11-26T20:38:12.862Z,43.10
2018-11-26T20:40:41.622Z,42.37
2018-11-26T20:43:11.662Z,48.43
2018-11-26T20:45:41.817Z,43.27
2018-11-26T20:48:11.154Z,44.23
2018-11-26T20:50:41.889Z,40.40
2018-11-26T20:53:11.110Z,46.97
2018-11-26T20:55:39.821Z,44.27
2018-11-26T20:58:08.530Z,44.27
2018-11-26T21:00:37.282Z,41.93
2018-11-26T21:03:08.894Z,40.73
2018-11-26T21:05:38.494Z,46.97
2018-11-26T21:08:07.678Z,49.10
2018-11-26T21:10:37.557Z,47.97
2018-11-26T21:13:06.965Z,50.80
2018-11-26T21:15:36.487Z,43.73
2018-11-26T21:18:20.310Z,44.20
2018-11-26T21:20:50.587Z,43.10
2018-11-26T21:23:28.633Z,42.27
2018-11-26T21:25:59.228Z,42.60
2018-11-26T21:28:28.172Z,42.80
2018-11-26T21:30:57.118Z,40.33
2018-11-26T21:33:25.955Z,38.03
2018-11-26T21:35:55.165Z,41.43
2018-11-26T21:38:24.135Z,43.47
2018-11-26T21:40:53.517Z,41.30
2018-11-26T21:43:22.563Z,37.43
2018-11-26T21:46:01.471Z,45.93
2018-11-26T21:48:30.408Z,37.77
2018-11-26T21:51:00.611Z,40.13
2018-11-26T21:53:29.587Z,39.83
2018-11-26T21:55:58.644Z,38.50
2018-11-26T21:58:27.672Z,41.13
2018-11-26T22:00:58.909Z,42.03
2018-11-26T22:03:30.679Z,37.57
2018-11-26T22:05:59.069Z,38.20
2018-11-26T22:08:27.997Z,36.20
2018-11-26T22:10:57.006Z,38.90
2018-11-26T22:13:25.903Z,41.07
2018-11-26T22:15:54.822Z,40.33
2018-11-26T22:18:24.634Z,40.27
2018-11-26T22:20:53.651Z,36.43
2018-11-26T22:23:22.754Z,42.03
2018-11-26T22:25:51.972Z,37.93
2018-11-26T22:28:21.213Z,35.93
2018-11-26T22:30:50.249Z,38.20
2018-11-26T22:33:19.345Z,35.57
2018-11-26T22:35:48.472Z,37.93
2018-11-26T22:38:17.774Z,42.00
2018-11-26T22:40:46.436Z,38.70
2018-11-26T22:43:15.027Z,39.10
2018-11-26T22:45:44.222Z,41.67
2018-11-26T22:48:13.681Z,40.13
2018-11-26T22:50:44.075Z,38.33
2018-11-26T22:53:12.727Z,39.43
2018-11-26T22:55:41.962Z,37.87
2018-11-26T22:58:14.612Z,37.13
2018-11-26T23:00:46.272Z,39.90
2018-11-26T23:03:17.505Z,39.23
2018-11-26T23:05:46.386Z,36.43
2018-11-26T23:08:15.057Z,39.83
2018-11-26T23:10:44.352Z,39.53
2018-11-26T23:13:13.245Z,39.83
2018-11-26T23:15:42.039Z,41.63
2018-11-26T23:18:10.930Z,36.57
2018-11-26T23:20:39.744Z,36.93
2018-11-26T23:23:08.402Z,40.70
2018-11-26T23:25:37.031Z,38.37
2018-11-26T23:28:05.718Z,39.57
2018-11-26T23:30:34.327Z,39.77
2018-11-26T23:33:05.001Z,35.77
2018-11-26T23:35:33.870Z,38.47
2018-11-26T23:38:02.577Z,40.97
2018-11-26T23:40:31.311Z,45.43
2018-11-26T23:43:00.030Z,38.47
2018-11-26T23:45:29.558Z,37.93
2018-11-26T23:47:58.279Z,39.17
2018-11-26T23:50:26.871Z,36.33
2018-11-26T23:52:55.529Z,38.03
2018-11-26T23:55:24.920Z,38.77
2018-11-26T23:57:53.654Z,35.87
